Time;durP1;ratioP1;P1;durP2;ratioP2;P2;SDS_P1;SDS_P2;PMS_P1;PMS_P2;Temp;Humidity;BMP_temperature;BMP_pressure;BME280_temperature;BME280_humidity;BME280_pressure;Samples;Min_cycle;Max_cycle;Signal;HPM_P1;HPM_P2
2022/06/25 00:02:07;;;;;;;1999.90;999.90;;;;;;;;;;5128192;27;20358;-72
2022/06/25 00:07:22;;;;;;;1999.90;999.90;;;;;;;;;;5128854;27;20398;-74
2022/06/25 00:09:49;;;;;;;1999.90;999.90;;;;;;;;;;5127550;27;20530;-74
2022/06/25 00:12:32;;;;;;;1999.90;999.90;;;;;;;;;;5128077;27;20390;-73
2022/06/25 00:15:00;;;;;;;1999.90;999.90;;;;;;;;;;5127616;27;20417;-74
2022/06/25 00:17:28;;;;;;;1999.90;999.90;;;;;;;;;;5144616;27;20378;-73
2022/06/25 00:19:57;;;;;;;1999.90;999.90;;;;;;;;;;5128705;27;20409;-73
2022/06/25 00:22:26;;;;;;;1999.90;999.90;;;;;;;;;;5123106;27;20866;-74
2022/06/25 00:24:54;;;;;;;1999.90;999.90;;;;;;;;;;5125284;27;20394;-75
2022/06/25 00:27:22;;;;;;;1999.90;999.90;;;;;;;;;;5125242;27;20401;-74
2022/06/25 00:29:50;;;;;;;1999.90;999.90;;;;;;;;;;5125113;27;20498;-73
2022/06/25 00:32:17;;;;;;;1999.90;999.90;;;;;;;;;;5127490;27;20401;-73
2022/06/25 00:34:45;;;;;;;1999.90;999.90;;;;;;;;;;5132224;27;20388;-73
2022/06/25 00:37:15;;;;;;;1999.90;999.90;;;;;;;;;;5131409;27;20491;-73
2022/06/25 00:39:44;;;;;;;1999.90;999.90;;;;;;;;;;5129086;27;20611;-73
2022/06/25 00:42:13;;;;;;;1999.90;999.90;;;;;;;;;;5129618;27;20416;-72
2022/06/25 00:44:41;;;;;;;1999.90;999.90;;;;;;;;;;5131201;27;20408;-74
2022/06/25 00:47:10;;;;;;;1999.90;999.90;;;;;;;;;;5130074;27;20386;-73
2022/06/25 00:49:38;;;;;;;1999.90;999.90;;;;;;;;;;5130142;27;20471;-73
2022/06/25 00:52:12;;;;;;;1999.90;999.90;;;;;;;;;;5133879;27;20401;-74
2022/06/25 00:54:43;;;;;;;1999.90;999.90;;;;;;;;;;5132879;27;20972;-74
2022/06/25 00:57:14;;;;;;;1999.90;999.90;;;;;;;;;;5128128;27;20396;-74
2022/06/25 00:59:43;;;;;;;1999.90;999.90;;;;;;;;;;5132138;27;20409;-74
2022/06/25 01:02:11;;;;;;;1999.90;999.90;;;;;;;;;;5129365;27;20392;-73
2022/06/25 01:04:39;;;;;;;1999.90;999.90;;;;;;;;;;5125655;27;20512;-73
2022/06/25 01:07:07;;;;;;;1999.90;999.90;;;;;;;;;;5109103;27;20425;-73
2022/06/25 01:09:35;;;;;;;1999.90;999.90;;;;;;;;;;5129087;27;20406;-74
2022/06/25 01:12:03;;;;;;;1999.90;999.90;;;;;;;;;;5110875;27;20408;-72
2022/06/25 01:14:33;;;;;;;1999.90;999.90;;;;;;;;;;5106704;27;20421;-73
2022/06/25 01:17:04;;;;;;;1999.90;999.90;;;;;;;;;;5125943;27;20481;-73
2022/06/25 01:19:33;;;;;;;1999.90;999.90;;;;;;;;;;5124039;27;20448;-73
2022/06/25 01:22:02;;;;;;;1999.90;999.90;;;;;;;;;;5124441;27;20409;-73
2022/06/25 01:24:31;;;;;;;1999.90;999.90;;;;;;;;;;5140696;27;20523;-74
2022/06/25 01:26:58;;;;;;;1999.90;999.90;;;;;;;;;;5104378;27;20896;-73
2022/06/25 01:29:26;;;;;;;1999.90;999.90;;;;;;;;;;5123367;27;20408;-74
2022/06/25 01:31:54;;;;;;;1999.90;999.90;;;;;;;;;;5130282;27;21635;-74
2022/06/25 01:34:23;;;;;;;1999.90;999.90;;;;;;;;;;5130176;27;20469;-74
2022/06/25 01:36:51;;;;;;;1999.90;999.90;;;;;;;;;;5128033;27;20429;-73
2022/06/25 01:39:20;;;;;;;1999.90;999.90;;;;;;;;;;5128838;27;20409;-73
2022/06/25 01:41:48;;;;;;;1999.90;999.90;;;;;;;;;;5106956;27;20918;-75
2022/06/25 01:44:17;;;;;;;1999.90;999.90;;;;;;;;;;5125067;27;34946;-74
2022/06/25 01:46:48;;;;;;;1999.90;999.90;;;;;;;;;;5122855;27;20366;-74
2022/06/25 01:49:16;;;;;;;1999.90;999.90;;;;;;;;;;5125920;27;20413;-75
2022/06/25 01:51:44;;;;;;;1999.90;999.90;;;;;;;;;;5129754;27;20392;-75
2022/06/25 01:54:12;;;;;;;1999.90;999.90;;;;;;;;;;5109572;27;20507;-74
2022/06/25 01:56:42;;;;;;;1999.90;999.90;;;;;;;;;;5108153;27;20429;-75
2022/06/25 01:59:10;;;;;;;1999.90;999.90;;;;;;;;;;5104743;27;20425;-75
2022/06/25 02:01:38;;;;;;;1999.90;999.90;;;;;;;;;;5120823;27;20892;-74
2022/06/25 02:04:06;;;;;;;1999.90;999.90;;;;;;;;;;5124394;27;20437;-74
2022/06/25 02:06:36;;;;;;;1999.90;999.90;;;;;;;;;;5122449;27;20443;-74
2022/06/25 02:09:04;;;;;;;1999.90;999.90;;;;;;;;;;5127420;27;20479;-74
2022/06/25 02:11:32;;;;;;;1999.90;999.90;;;;;;;;;;5126496;27;20477;-73
2022/06/25 02:14:01;;;;;;;1999.90;999.90;;;;;;;;;;5145167;27;20878;-73
2022/06/25 02:16:29;;;;;;;1999.90;999.90;;;;;;;;;;5107212;27;20891;-74
2022/06/25 02:18:57;;;;;;;1999.90;999.90;;;;;;;;;;5107252;27;21226;-73
2022/06/25 02:21:25;;;;;;;1999.90;999.90;;;;;;;;;;5128813;27;20858;-74
2022/06/25 02:23:52;;;;;;;1999.90;999.90;;;;;;;;;;5122985;27;20945;-74
2022/06/25 02:26:20;;;;;;;1999.90;999.90;;;;;;;;;;5119766;27;20390;-75
2022/06/25 02:28:48;;;;;;;1999.90;999.90;;;;;;;;;;5124101;27;21040;-74
2022/06/25 02:31:18;;;;;;;1999.90;999.90;;;;;;;;;;5121971;27;20409;-75
2022/06/25 02:33:46;;;;;;;1999.90;999.90;;;;;;;;;;5122744;27;20431;-74
2022/06/25 02:36:13;;;;;;;1999.90;999.90;;;;;;;;;;5124054;27;20402;-73
2022/06/25 02:38:41;;;;;;;1999.90;999.90;;;;;;;;;;5121988;27;20416;-73
2022/06/25 02:41:10;;;;;;;1999.90;999.90;;;;;;;;;;5101769;27;20393;-73
2022/06/25 02:43:39;;;;;;;1999.90;999.90;;;;;;;;;;5120143;27;20427;-76
2022/06/25 02:46:31;;;;;;;1999.90;999.90;;;;;;;;;;5118663;27;20510;-74
2022/06/25 02:48:59;;;;;;;1999.90;999.90;;;;;;;;;;5102880;27;20874;-74
2022/06/25 02:51:27;;;;;;;1999.90;999.90;;;;;;;;;;5104883;27;20457;-74
2022/06/25 02:53:56;;;;;;;1999.90;999.90;;;;;;;;;;5104280;27;20419;-74
2022/06/25 02:59:09;;;;;;;1999.90;999.90;;;;;;;;;;5126190;27;20423;-74
2022/06/25 03:01:41;;;;;;;1999.90;999.90;;;;;;;;;;5108522;27;20399;-73
2022/06/25 03:04:10;;;;;;;1999.90;999.90;;;;;;;;;;5122613;27;20406;-73
2022/06/25 03:06:38;;;;;;;1999.90;999.90;;;;;;;;;;5119911;27;20529;-74
2022/06/25 03:09:07;;;;;;;1999.90;999.90;;;;;;;;;;5127375;27;20415;-74
2022/06/25 03:11:34;;;;;;;1999.90;999.90;;;;;;;;;;5123450;27;20710;-74
2022/06/25 03:14:02;;;;;;;1999.90;999.90;;;;;;;;;;5115869;27;20471;-73
2022/06/25 03:16:31;;;;;;;1999.90;999.90;;;;;;;;;;5112190;27;20392;-73
2022/06/25 03:19:04;;;;;;;1999.90;999.90;;;;;;;;;;5128258;27;20411;-74
2022/06/25 03:22:10;;;;;;;1999.90;999.90;;;;;;;;;;5129171;27;20450;-75
2022/06/25 03:24:38;;;;;;;1999.90;999.90;;;;;;;;;;5129165;27;20432;-73
2022/06/25 03:27:06;;;;;;;1999.90;999.90;;;;;;;;;;5127430;27;20417;-74
2022/06/25 03:29:34;;;;;;;1999.90;999.90;;;;;;;;;;5113921;27;20410;-73
2022/06/25 03:32:02;;;;;;;1999.90;999.90;;;;;;;;;;5110032;27;20521;-75
2022/06/25 03:34:46;;;;;;;1999.90;999.90;;;;;;;;;;5113604;27;20404;-72
2022/06/25 03:37:16;;;;;;;1999.90;999.90;;;;;;;;;;5127449;27;20790;-73
2022/06/25 03:39:44;;;;;;;1999.90;999.90;;;;;;;;;;5116183;27;20406;-73
2022/06/25 03:42:12;;;;;;;1999.90;999.90;;;;;;;;;;5124761;27;20400;-73
2022/06/25 03:44:44;;;;;;;1999.90;999.90;;;;;;;;;;5127420;27;21408;-73
2022/06/25 03:47:23;;;;;;;1999.90;999.90;;;;;;;;;;5126105;27;20464;-72
2022/06/25 03:49:53;;;;;;;1999.90;999.90;;;;;;;;;;5108815;27;20404;-73
2022/06/25 03:52:23;;;;;;;1999.90;999.90;;;;;;;;;;5107288;27;20471;-73
2022/06/25 03:54:51;;;;;;;1999.90;999.90;;;;;;;;;;5129468;27;20478;-73
2022/06/25 03:57:19;;;;;;;1999.90;999.90;;;;;;;;;;5118013;27;20476;-72
2022/06/25 03:59:56;;;;;;;1999.90;999.90;;;;;;;;;;5129476;27;20486;-73
2022/06/25 04:02:26;;;;;;;1999.90;999.90;;;;;;;;;;5109304;27;20408;-72
2022/06/25 04:05:19;;;;;;;1999.90;999.90;;;;;;;;;;5124679;27;20400;-73
2022/06/25 04:07:46;;;;;;;1999.90;999.90;;;;;;;;;;5127274;27;20468;-73
2022/06/25 04:10:14;;;;;;;1999.90;999.90;;;;;;;;;;5107042;27;20517;-73
2022/06/25 04:12:42;;;;;;;1999.90;999.90;;;;;;;;;;5109585;27;20949;-73
2022/06/25 04:15:11;;;;;;;1999.90;999.90;;;;;;;;;;5106248;27;20398;-73
2022/06/25 04:17:38;;;;;;;1999.90;999.90;;;;;;;;;;5129029;27;20378;-73
2022/06/25 04:20:08;;;;;;;1999.90;999.90;;;;;;;;;;5116270;27;20501;-72
2022/06/25 04:22:38;;;;;;;1999.90;999.90;;;;;;;;;;5112861;27;20394;-74
2022/06/25 04:25:06;;;;;;;1999.90;999.90;;;;;;;;;;5131866;27;20384;-72
2022/06/25 04:30:19;;;;;;;1999.90;999.90;;;;;;;;;;5076825;27;20408;-73
2022/06/25 04:32:49;;;;;;;1999.90;999.90;;;;;;;;;;5111008;27;21227;-73
2022/06/25 04:35:20;;;;;;;1999.90;999.90;;;;;;;;;;5134933;27;20383;-74
2022/06/25 04:37:51;;;;;;;1999.90;999.90;;;;;;;;;;5109484;27;20404;-74
2022/06/25 04:40:20;;;;;;;1999.90;999.90;;;;;;;;;;5132638;27;20411;-74
2022/06/25 04:42:50;;;;;;;1999.90;999.90;;;;;;;;;;5107799;27;20411;-74
2022/06/25 04:45:18;;;;;;;1999.90;999.90;;;;;;;;;;5110885;27;20412;-75
2022/06/25 04:48:00;;;;;;;1999.90;999.90;;;;;;;;;;5126895;27;20493;-74
2022/06/25 04:50:47;;;;;;;1999.90;999.90;;;;;;;;;;5123014;27;20381;-75
2022/06/25 04:53:16;;;;;;;1999.90;999.90;;;;;;;;;;5108725;27;20382;-74
2022/06/25 04:55:44;;;;;;;1999.90;999.90;;;;;;;;;;5105032;27;20463;-73
2022/06/25 04:58:11;;;;;;;1999.90;999.90;;;;;;;;;;5123907;27;20484;-74
2022/06/25 05:00:59;;;;;;;1999.90;999.90;;;;;;;;;;5128928;27;20396;-74
2022/06/25 05:03:27;;;;;;;1999.90;999.90;;;;;;;;;;5106690;27;20445;-74
2022/06/25 05:06:09;;;;;;;1999.90;999.90;;;;;;;;;;5122112;27;20392;-73
2022/06/25 05:08:40;;;;;;;1999.90;999.90;;;;;;;;;;5123869;27;20382;-74
2022/06/25 05:11:08;;;;;;;1999.90;999.90;;;;;;;;;;5131345;27;20496;-74
2022/06/25 05:13:35;;;;;;;1999.90;999.90;;;;;;;;;;5124683;27;20401;-74
2022/06/25 05:16:03;;;;;;;1999.90;999.90;;;;;;;;;;5123909;27;20402;-74
2022/06/25 05:18:31;;;;;;;1999.90;999.90;;;;;;;;;;5128939;27;20394;-74
2022/06/25 05:20:59;;;;;;;1999.90;999.90;;;;;;;;;;5109613;27;20405;-74
2022/06/25 05:23:27;;;;;;;1999.90;999.90;;;;;;;;;;5128077;27;20395;-74
2022/06/25 05:25:57;;;;;;;1999.90;999.90;;;;;;;;;;5106919;27;20396;-74
2022/06/25 05:28:25;;;;;;;1999.90;999.90;;;;;;;;;;5126904;27;20392;-69
2022/06/25 05:30:53;;;;;;;1999.90;999.90;;;;;;;;;;5120689;27;20406;-69
2022/06/25 05:33:21;;;;;;;1999.90;999.90;;;;;;;;;;5123798;27;20685;-69
2022/06/25 05:35:49;;;;;;;1999.90;999.90;;;;;;;;;;5126502;27;20795;-69
2022/06/25 05:38:17;;;;;;;1999.90;999.90;;;;;;;;;;5124647;27;20442;-69
2022/06/25 05:40:45;;;;;;;1999.90;999.90;;;;;;;;;;5123624;27;20984;-67
2022/06/25 05:43:14;;;;;;;1999.90;999.90;;;;;;;;;;5127356;27;20382;-68
2022/06/25 05:45:42;;;;;;;1999.90;999.90;;;;;;;;;;5125434;27;21398;-67
2022/06/25 05:48:10;;;;;;;1999.90;999.90;;;;;;;;;;5135679;27;21076;-67
2022/06/25 05:50:37;;;;;;;1999.90;999.90;;;;;;;;;;5123620;27;20424;-67
2022/06/25 05:53:05;;;;;;;1999.90;999.90;;;;;;;;;;5127308;27;20486;-72
2022/06/25 05:55:34;;;;;;;1999.90;999.90;;;;;;;;;;5131150;27;20388;-73
2022/06/25 05:58:02;;;;;;;1999.90;999.90;;;;;;;;;;5128766;27;20413;-73
2022/06/25 06:00:31;;;;;;;1999.90;999.90;;;;;;;;;;5124164;27;20397;-72
2022/06/25 06:02:58;;;;;;;1999.90;999.90;;;;;;;;;;5128120;27;20412;-71
2022/06/25 06:05:27;;;;;;;1999.90;999.90;;;;;;;;;;5121078;27;20407;-70
2022/06/25 06:07:55;;;;;;;1999.90;999.90;;;;;;;;;;5105504;27;20433;-74
2022/06/25 06:10:23;;;;;;;1999.90;999.90;;;;;;;;;;5132748;27;20418;-74
2022/06/25 06:12:51;;;;;;;1999.90;999.90;;;;;;;;;;5125308;27;21230;-73
2022/06/25 06:15:18;;;;;;;1999.90;999.90;;;;;;;;;;5124411;27;21241;-74
2022/06/25 06:17:48;;;;;;;1999.90;999.90;;;;;;;;;;5124869;27;20483;-73
2022/06/25 06:20:15;;;;;;;1999.90;999.90;;;;;;;;;;5128626;27;20471;-74
2022/06/25 06:22:43;;;;;;;1999.90;999.90;;;;;;;;;;5126809;27;21405;-74
2022/06/25 06:25:11;;;;;;;1999.90;999.90;;;;;;;;;;5127152;27;20392;-74
2022/06/25 06:27:38;;;;;;;1999.90;999.90;;;;;;;;;;5125762;27;21079;-73
2022/06/25 06:30:08;;;;;;;1999.90;999.90;;;;;;;;;;5146181;27;20392;-73
2022/06/25 06:32:36;;;;;;;1999.90;999.90;;;;;;;;;;5127203;27;20512;-73
2022/06/25 06:35:06;;;;;;;1999.90;999.90;;;;;;;;;;5126712;27;20386;-74
2022/06/25 06:37:34;;;;;;;1999.90;999.90;;;;;;;;;;5124206;27;20441;-73
2022/06/25 06:40:03;;;;;;;1999.90;999.90;;;;;;;;;;5124140;27;20388;-74
2022/06/25 06:42:30;;;;;;;1999.90;999.90;;;;;;;;;;5120493;27;20543;-75
2022/06/25 06:44:58;;;;;;;1999.90;999.90;;;;;;;;;;5128315;27;20385;-75
2022/06/25 06:47:26;;;;;;;1999.90;999.90;;;;;;;;;;5129768;27;20383;-74
2022/06/25 06:49:54;;;;;;;1999.90;999.90;;;;;;;;;;5145060;27;20395;-74
2022/06/25 06:52:23;;;;;;;1999.90;999.90;;;;;;;;;;5126325;27;20513;-74
2022/06/25 06:54:51;;;;;;;1999.90;999.90;;;;;;;;;;5127838;27;20440;-74
2022/06/25 06:57:18;;;;;;;1999.90;999.90;;;;;;;;;;5124532;27;20373;-74
2022/06/25 06:59:46;;;;;;;1999.90;999.90;;;;;;;;;;5143840;27;20393;-74
2022/06/25 07:02:14;;;;;;;1999.90;999.90;;;;;;;;;;5126670;27;20566;-74
2022/06/25 07:04:42;;;;;;;1999.90;999.90;;;;;;;;;;5131527;27;20402;-72
2022/06/25 07:07:09;;;;;;;1999.90;999.90;;;;;;;;;;5123728;27;20448;-72
2022/06/25 07:09:38;;;;;;;1999.90;999.90;;;;;;;;;;5128438;27;20389;-72
2022/06/25 07:12:06;;;;;;;1999.90;999.90;;;;;;;;;;5131187;27;20382;-73
2022/06/25 07:14:34;;;;;;;1999.90;999.90;;;;;;;;;;5129147;27;20397;-72
2022/06/25 07:17:02;;;;;;;1999.90;999.90;;;;;;;;;;5131485;27;20394;-73
2022/06/25 07:19:30;;;;;;;1999.90;999.90;;;;;;;;;;5133330;27;20407;-73
2022/06/25 07:21:58;;;;;;;1999.90;999.90;;;;;;;;;;5133647;27;20398;-72
2022/06/25 07:24:25;;;;;;;1999.90;999.90;;;;;;;;;;5130001;27;20425;-73
2022/06/25 07:26:55;;;;;;;1999.90;999.90;;;;;;;;;;5129387;27;20398;-72
2022/06/25 07:29:22;;;;;;;1999.90;999.90;;;;;;;;;;5128665;27;20494;-73
2022/06/25 07:31:51;;;;;;;1999.90;999.90;;;;;;;;;;5133274;27;20842;-72
2022/06/25 07:34:19;;;;;;;1999.90;999.90;;;;;;;;;;5122957;27;21056;-73
2022/06/25 07:36:47;;;;;;;1999.90;999.90;;;;;;;;;;5125872;27;20393;-73
2022/06/25 07:39:14;;;;;;;1999.90;999.90;;;;;;;;;;5125028;27;20413;-72
2022/06/25 07:41:42;;;;;;;1999.90;999.90;;;;;;;;;;5120907;27;20447;-73
2022/06/25 07:44:12;;;;;;;1999.90;999.90;;;;;;;;;;5130103;27;20452;-72
2022/06/25 07:46:39;;;;;;;1999.90;999.90;;;;;;;;;;5127720;27;20382;-73
2022/06/25 07:49:09;;;;;;;1999.90;999.90;;;;;;;;;;5122537;27;21241;-73
2022/06/25 07:54:23;;;;;;;1999.90;999.90;;;;;;;;;;5125065;27;20423;-72
2022/06/25 07:56:51;;;;;;;1999.90;999.90;;;;;;;;;;5104428;27;21007;-72
2022/06/25 07:59:21;;;;;;;1999.90;999.90;;;;;;;;;;5120813;27;20472;-71
2022/06/25 08:01:49;;;;;;;1999.90;999.90;;;;;;;;;;5119585;27;20396;-73
2022/06/25 08:04:17;;;;;;;1999.90;999.90;;;;;;;;;;5118349;27;20398;-73
2022/06/25 08:06:46;;;;;;;1999.90;999.90;;;;;;;;;;5120016;27;20385;-73
2022/06/25 08:09:14;;;;;;;1999.90;999.90;;;;;;;;;;5125289;27;20405;-73
2022/06/25 08:11:41;;;;;;;1999.90;999.90;;;;;;;;;;5121836;27;20508;-73
2022/06/25 08:14:09;;;;;;;1999.90;999.90;;;;;;;;;;5126829;27;20404;-73
2022/06/25 08:16:39;;;;;;;1999.90;999.90;;;;;;;;;;5120554;27;20863;-73
2022/06/25 08:19:07;;;;;;;1999.90;999.90;;;;;;;;;;5123602;27;20407;-73
2022/06/25 08:21:34;;;;;;;1999.90;999.90;;;;;;;;;;5101987;27;20408;-73
2022/06/25 08:24:02;;;;;;;1999.90;999.90;;;;;;;;;;5117148;27;20410;-74
2022/06/25 08:26:30;;;;;;;1999.90;999.90;;;;;;;;;;5104780;27;21006;-76
2022/06/25 08:29:01;;;;;;;1999.90;999.90;;;;;;;;;;5124771;27;20414;-75
2022/06/25 08:31:29;;;;;;;1999.90;999.90;;;;;;;;;;5125133;27;20434;-75
2022/06/25 08:33:59;;;;;;;1999.90;999.90;;;;;;;;;;5110901;27;20421;-75
2022/06/25 08:36:26;;;;;;;1999.90;999.90;;;;;;;;;;5118708;27;20484;-73
2022/06/25 08:38:54;;;;;;;1999.90;999.90;;;;;;;;;;5122204;27;20404;-73
2022/06/25 08:41:23;;;;;;;1999.90;999.90;;;;;;;;;;5127340;27;20406;-75
2022/06/25 08:43:51;;;;;;;1999.90;999.90;;;;;;;;;;5119537;27;20405;-74
2022/06/25 08:46:19;;;;;;;1999.90;999.90;;;;;;;;;;5095115;27;20408;-72
2022/06/25 08:48:49;;;;;;;1999.90;999.90;;;;;;;;;;5120528;27;20413;-75
2022/06/25 08:51:19;;;;;;;1999.90;999.90;;;;;;;;;;5102419;27;20397;-74
2022/06/25 08:53:46;;;;;;;1999.90;999.90;;;;;;;;;;5120074;27;20438;-75
2022/06/25 08:56:15;;;;;;;1999.90;999.90;;;;;;;;;;5115143;27;22633;-74
2022/06/25 08:58:43;;;;;;;1999.90;999.90;;;;;;;;;;5122622;27;21027;-72
2022/06/25 09:01:11;;;;;;;1999.90;999.90;;;;;;;;;;5116142;27;20403;-72
2022/06/25 09:03:40;;;;;;;1999.90;999.90;;;;;;;;;;5119597;27;20378;-72
2022/06/25 09:06:14;;;;;;;1999.90;999.90;;;;;;;;;;5119607;27;20745;-73
2022/06/25 09:08:44;;;;;;;1999.90;999.90;;;;;;;;;;5121408;27;20802;-73
2022/06/25 09:11:12;;;;;;;1999.90;999.90;;;;;;;;;;5121260;27;20393;-73
2022/06/25 09:13:40;;;;;;;1999.90;999.90;;;;;;;;;;5115850;27;20413;-73
2022/06/25 09:16:23;;;;;;;1999.90;999.90;;;;;;;;;;5120649;27;20455;-73
2022/06/25 09:18:51;;;;;;;1999.90;999.90;;;;;;;;;;5122410;27;20401;-71
2022/06/25 09:21:18;;;;;;;1999.90;999.90;;;;;;;;;;5120421;27;20417;-71
2022/06/25 09:23:58;;;;;;;1999.90;999.90;;;;;;;;;;5121206;27;20928;-70
2022/06/25 09:26:26;;;;;;;1999.90;999.90;;;;;;;;;;5117455;27;20382;-71
2022/06/25 09:29:01;;;;;;;1999.90;999.90;;;;;;;;;;5121535;27;20402;-71
2022/06/25 09:31:35;;;;;;;1999.90;999.90;;;;;;;;;;5122455;27;20377;-70
2022/06/25 09:34:04;;;;;;;1999.90;999.90;;;;;;;;;;5117835;27;20586;-70
2022/06/25 09:36:32;;;;;;;1999.90;999.90;;;;;;;;;;5128960;27;20981;-71
2022/06/25 09:39:01;;;;;;;1999.90;999.90;;;;;;;;;;5121817;27;20412;-72
2022/06/25 09:41:47;;;;;;;1999.90;999.90;;;;;;;;;;5122724;27;20437;-69
2022/06/25 09:44:16;;;;;;;1999.90;999.90;;;;;;;;;;5114483;27;20518;-69
2022/06/25 09:46:54;;;;;;;1999.90;999.90;;;;;;;;;;5110612;27;20404;-69
2022/06/25 09:49:22;;;;;;;1999.90;999.90;;;;;;;;;;5118065;27;20404;-69
2022/06/25 09:51:58;;;;;;;1999.90;999.90;;;;;;;;;;5120125;27;20400;-70
2022/06/25 09:54:27;;;;;;;1999.90;999.90;;;;;;;;;;5116914;27;20407;-67
2022/06/25 09:56:55;;;;;;;1999.90;999.90;;;;;;;;;;5118662;27;20452;-67
2022/06/25 09:59:24;;;;;;;1999.90;999.90;;;;;;;;;;5120382;27;20544;-68
2022/06/25 10:01:52;;;;;;;1999.90;999.90;;;;;;;;;;5121087;27;20417;-69
2022/06/25 10:04:21;;;;;;;1999.90;999.90;;;;;;;;;;5115449;27;20428;-69
2022/06/25 10:06:50;;;;;;;1999.90;999.90;;;;;;;;;;5115562;27;21106;-67
2022/06/25 10:09:19;;;;;;;1999.90;999.90;;;;;;;;;;5116730;27;21014;-69
2022/06/25 10:11:48;;;;;;;1999.90;999.90;;;;;;;;;;5114802;27;20401;-69
2022/06/25 10:14:16;;;;;;;1999.90;999.90;;;;;;;;;;5122374;27;20429;-69
2022/06/25 10:16:44;;;;;;;1999.90;999.90;;;;;;;;;;5124914;27;20835;-70
2022/06/25 10:19:12;;;;;;;1999.90;999.90;;;;;;;;;;5125538;27;20394;-70
2022/06/25 10:21:41;;;;;;;1999.90;999.90;;;;;;;;;;5122262;27;20945;-68
2022/06/25 10:24:09;;;;;;;1999.90;999.90;;;;;;;;;;5118751;27;20396;-68
2022/06/25 10:26:37;;;;;;;1999.90;999.90;;;;;;;;;;5128818;27;20409;-67
2022/06/25 10:29:23;;;;;;;1999.90;999.90;;;;;;;;;;5125064;27;20412;-69
2022/06/25 10:31:51;;;;;;;1999.90;999.90;;;;;;;;;;5130320;27;20400;-67
2022/06/25 10:34:18;;;;;;;1999.90;999.90;;;;;;;;;;5120285;27;20523;-68
2022/06/25 10:36:47;;;;;;;1999.90;999.90;;;;;;;;;;5116017;27;20974;-67
2022/06/25 10:39:30;;;;;;;1999.90;999.90;;;;;;;;;;5115762;27;20492;-68
2022/06/25 10:45:07;;;;;;;1999.90;999.90;;;;;;;;;;5116936;27;23597;-70
2022/06/25 10:47:41;;;;;;;1999.90;999.90;;;;;;;;;;5121030;27;20492;-70
2022/06/25 10:50:27;;;;;;;1999.90;999.90;;;;;;;;;;5121299;27;21261;-70
2022/06/25 10:53:13;;;;;;;1999.90;999.90;;;;;;;;;;5115863;27;20491;-70
2022/06/25 10:55:57;;;;;;;1999.90;999.90;;;;;;;;;;5114174;27;20397;-70
2022/06/25 10:58:26;;;;;;;1999.90;999.90;;;;;;;;;;5116327;27;20400;-71
2022/06/25 11:00:57;;;;;;;1999.90;999.90;;;;;;;;;;5096906;27;20415;-71
2022/06/25 11:03:43;;;;;;;1999.90;999.90;;;;;;;;;;5115658;27;20945;-71
2022/06/25 11:06:21;;;;;;;1999.90;999.90;;;;;;;;;;5114637;27;20386;-70
2022/06/25 11:08:49;;;;;;;1999.90;999.90;;;;;;;;;;5115316;27;20411;-71
2022/06/25 11:11:23;;;;;;;1999.90;999.90;;;;;;;;;;5114980;27;20537;-71
2022/06/25 11:13:51;;;;;;;1999.90;999.90;;;;;;;;;;5114491;27;21338;-70
2022/06/25 11:16:21;;;;;;;1999.90;999.90;;;;;;;;;;5119883;27;20945;-70
2022/06/25 11:18:50;;;;;;;1999.90;999.90;;;;;;;;;;5122921;27;20513;-70
2022/06/25 11:21:25;;;;;;;1999.90;999.90;;;;;;;;;;5126981;27;20963;-70
2022/06/25 11:23:53;;;;;;;1999.90;999.90;;;;;;;;;;5119106;27;20377;-71
2022/06/25 11:29:06;;;;;;;1999.90;999.90;;;;;;;;;;5123840;27;20797;-69
2022/06/25 11:31:35;;;;;;;1999.90;999.90;;;;;;;;;;5123801;27;20523;-69
2022/06/25 11:34:03;;;;;;;1999.90;999.90;;;;;;;;;;5123042;27;20409;-70
2022/06/25 11:36:33;;;;;;;1999.90;999.90;;;;;;;;;;5122502;27;20571;-70
2022/06/25 11:39:02;;;;;;;1999.90;999.90;;;;;;;;;;5109401;27;20511;-69
2022/06/25 11:41:30;;;;;;;1999.90;999.90;;;;;;;;;;5109307;27;20415;-70
2022/06/25 11:44:04;;;;;;;1999.90;999.90;;;;;;;;;;5122161;27;20397;-71
2022/06/25 11:46:35;;;;;;;1999.90;999.90;;;;;;;;;;5124522;27;20394;-70
2022/06/25 11:49:04;;;;;;;1999.90;999.90;;;;;;;;;;5126438;27;20432;-70
2022/06/25 11:51:32;;;;;;;1999.90;999.90;;;;;;;;;;5131366;27;20423;-71
2022/06/25 11:54:04;;;;;;;1999.90;999.90;;;;;;;;;;5121696;27;20392;-69
2022/06/25 11:56:32;;;;;;;1999.90;999.90;;;;;;;;;;5121506;27;20393;-70
2022/06/25 11:59:00;;;;;;;1999.90;999.90;;;;;;;;;;5127412;27;20943;-71
2022/06/25 12:01:28;;;;;;;1999.90;999.90;;;;;;;;;;5118832;27;20438;-70
2022/06/25 12:03:58;;;;;;;1999.90;999.90;;;;;;;;;;5123307;27;20997;-71
2022/06/25 12:06:25;;;;;;;1999.90;999.90;;;;;;;;;;5125505;27;20400;-70
2022/06/25 12:08:53;;;;;;;1999.90;999.90;;;;;;;;;;5122280;27;20390;-71
2022/06/25 12:11:21;;;;;;;1999.90;999.90;;;;;;;;;;5124280;27;20604;-71
2022/06/25 12:13:50;;;;;;;1999.90;999.90;;;;;;;;;;5122012;27;20404;-71
2022/06/25 12:16:18;;;;;;;1999.90;999.90;;;;;;;;;;5118003;27;20908;-71
2022/06/25 12:18:46;;;;;;;1999.90;999.90;;;;;;;;;;5116454;27;20407;-70
2022/06/25 12:21:20;;;;;;;1999.90;999.90;;;;;;;;;;5116946;27;20398;-70
2022/06/25 12:23:52;;;;;;;1999.90;999.90;;;;;;;;;;5120643;27;20441;-70
2022/06/25 12:26:27;;;;;;;1999.90;999.90;;;;;;;;;;5097711;27;20986;-71
2022/06/25 12:29:05;;;;;;;1999.90;999.90;;;;;;;;;;5119783;27;20443;-70
2022/06/25 12:31:33;;;;;;;1999.90;999.90;;;;;;;;;;5133253;27;20907;-70
2022/06/25 12:34:01;;;;;;;1999.90;999.90;;;;;;;;;;5117924;27;20416;-72
2022/06/25 12:36:31;;;;;;;1999.90;999.90;;;;;;;;;;5133674;27;20786;-71
2022/06/25 12:38:59;;;;;;;1999.90;999.90;;;;;;;;;;5111562;27;21032;-71
2022/06/25 12:41:45;;;;;;;1999.90;999.90;;;;;;;;;;5126479;27;20408;-70
2022/06/25 12:44:13;;;;;;;1999.90;999.90;;;;;;;;;;5130672;27;20457;-71
2022/06/25 12:46:42;;;;;;;1999.90;999.90;;;;;;;;;;5130860;27;20915;-70
2022/06/25 12:49:11;;;;;;;1999.90;999.90;;;;;;;;;;5127709;27;20388;-71
2022/06/25 12:51:45;;;;;;;1999.90;999.90;;;;;;;;;;5126342;27;20945;-70
2022/06/25 12:54:13;;;;;;;1999.90;999.90;;;;;;;;;;5127596;27;20897;-70
2022/06/25 12:56:41;;;;;;;1999.90;999.90;;;;;;;;;;5108805;27;20397;-71
2022/06/25 12:59:11;;;;;;;1999.90;999.90;;;;;;;;;;5128236;27;20852;-71
2022/06/25 13:01:39;;;;;;;1999.90;999.90;;;;;;;;;;5131572;27;20460;-72
2022/06/25 13:04:07;;;;;;;1999.90;999.90;;;;;;;;;;5126663;27;20816;-71
2022/06/25 13:06:35;;;;;;;1999.90;999.90;;;;;;;;;;5108510;27;20386;-71
2022/06/25 13:09:04;;;;;;;1999.90;999.90;;;;;;;;;;5125118;27;20472;-75
2022/06/25 13:11:33;;;;;;;1999.90;999.90;;;;;;;;;;5127402;27;20389;-77
2022/06/25 13:14:01;;;;;;;1999.90;999.90;;;;;;;;;;5110549;27;20962;-70
2022/06/25 13:16:29;;;;;;;1999.90;999.90;;;;;;;;;;5105628;27;20391;-69
2022/06/25 13:18:58;;;;;;;1999.90;999.90;;;;;;;;;;5108161;27;20388;-70
2022/06/25 13:21:26;;;;;;;1999.90;999.90;;;;;;;;;;5106221;27;20408;-70
2022/06/25 13:23:54;;;;;;;1999.90;999.90;;;;;;;;;;5105859;27;20384;-71
2022/06/25 13:26:23;;;;;;;1999.90;999.90;;;;;;;;;;5118396;27;20996;-71
2022/06/25 13:28:51;;;;;;;1999.90;999.90;;;;;;;;;;5124798;27;20599;-71
2022/06/25 13:31:19;;;;;;;1999.90;999.90;;;;;;;;;;5122072;27;21310;-70
2022/06/25 13:33:47;;;;;;;1999.90;999.90;;;;;;;;;;5127364;27;21199;-70
2022/06/25 13:36:14;;;;;;;1999.90;999.90;;;;;;;;;;5120261;27;20406;-70
2022/06/25 13:38:42;;;;;;;1999.90;999.90;;;;;;;;;;5123189;27;20421;-70
2022/06/25 13:41:10;;;;;;;1999.90;999.90;;;;;;;;;;5118883;27;20401;-70
2022/06/25 13:43:39;;;;;;;1999.90;999.90;;;;;;;;;;5116013;27;20393;-70
2022/06/25 13:46:07;;;;;;;1999.90;999.90;;;;;;;;;;5121869;27;20915;-70
2022/06/25 13:48:35;;;;;;;1999.90;999.90;;;;;;;;;;5116403;27;20459;-70
2022/06/25 13:51:02;;;;;;;1999.90;999.90;;;;;;;;;;5120881;27;20403;-71
2022/06/25 13:53:32;;;;;;;1999.90;999.90;;;;;;;;;;5120012;27;20385;-69
2022/06/25 13:56:00;;;;;;;1999.90;999.90;;;;;;;;;;5126234;27;20401;-68
2022/06/25 13:58:28;;;;;;;1999.90;999.90;;;;;;;;;;5121978;27;20386;-70
2022/06/25 14:00:58;;;;;;;1999.90;999.90;;;;;;;;;;5121181;27;20415;-75
2022/06/25 14:03:27;;;;;;;1999.90;999.90;;;;;;;;;;5120194;27;20494;-72
2022/06/25 14:06:02;;;;;;;1999.90;999.90;;;;;;;;;;5122241;27;20833;-71
2022/06/25 14:08:30;;;;;;;1999.90;999.90;;;;;;;;;;5120144;27;20413;-71
2022/06/25 14:10:58;;;;;;;1999.90;999.90;;;;;;;;;;5119440;27;20392;-70
2022/06/25 14:13:26;;;;;;;1999.90;999.90;;;;;;;;;;5126471;27;20443;-71